createdAt,value
2024-01-24T00:01:21.249Z,99902.72
2024-01-24T00:04:07.603Z,99888.94
2024-01-24T00:06:53.904Z,99864.38
2024-01-24T00:09:40.519Z,99846.94
2024-01-24T00:12:26.814Z,99866.31
2024-01-24T00:15:13.917Z,99854.47
2024-01-24T00:18:00.022Z,99851.88
2024-01-24T00:20:46.590Z,99837.25
2024-01-24T00:23:32.942Z,99815.19
2024-01-24T00:26:19.374Z,99826.75
2024-01-24T00:29:06.025Z,99832.03
2024-01-24T00:31:53.726Z,99801.78
2024-01-24T00:34:40.927Z,99806.97
2024-01-24T00:37:27.215Z,99721.06
2024-01-24T00:40:13.818Z,99805.34
2024-01-24T00:43:01.336Z,99829.41
2024-01-24T00:45:48.234Z,99836.41
2024-01-24T00:48:34.810Z,99853.63
2024-01-24T00:51:21.074Z,99856.28
2024-01-24T00:54:07.276Z,99852.66
2024-01-24T00:56:54.125Z,99836.81
2024-01-24T00:59:40.442Z,99826.47
2024-01-24T01:02:26.919Z,99829.69
2024-01-24T01:05:13.577Z,99840.91
2024-01-24T01:07:59.855Z,99808.09
2024-01-24T01:10:46.349Z,99832.44
2024-01-24T01:13:35.810Z,99813.34
2024-01-24T01:16:22.300Z,99772.50
2024-01-24T01:19:09.106Z,99796.91
2024-01-24T01:21:55.639Z,99801.28
2024-01-24T01:24:41.751Z,99791.00
2024-01-24T01:27:28.372Z,99789.78
2024-01-24T01:30:15.057Z,99801.16
2024-01-24T01:33:01.359Z,99759.72
2024-01-24T01:35:48.040Z,99779.44
2024-01-24T01:38:34.567Z,99782.28
2024-01-24T01:41:20.902Z,99767.47
2024-01-24T01:44:07.680Z,99759.72
2024-01-24T01:46:54.274Z,99800.34
2024-01-24T01:49:44.084Z,99797.91
2024-01-24T01:52:31.844Z,99791.69
2024-01-24T01:55:18.405Z,99796.13
2024-01-24T01:58:04.908Z,99766.66
2024-01-24T02:00:51.579Z,99777.91
2024-01-24T02:03:38.611Z,99776.19
2024-01-24T02:06:25.490Z,99784.81
2024-01-24T02:09:12.842Z,99776.00
2024-01-24T02:11:59.981Z,99737.63
2024-01-24T02:14:46.589Z,99779.25
2024-01-24T02:17:33.105Z,99761.84
2024-01-24T02:20:20.307Z,99767.34
2024-01-24T02:23:06.522Z,99757.88
2024-01-24T02:25:53.836Z,99768.41
2024-01-24T02:28:40.483Z,99764.81
2024-01-24T02:31:27.122Z,99752.72
2024-01-24T02:34:14.177Z,99737.03
2024-01-24T02:37:01.001Z,99724.44
2024-01-24T02:39:48.248Z,99738.09
2024-01-24T02:42:34.951Z,99735.44
2024-01-24T02:45:21.284Z,99748.28
2024-01-24T02:48:08.321Z,99743.13
2024-01-24T02:50:55.281Z,99702.19
2024-01-24T02:53:42.013Z,99715.38
2024-01-24T02:56:28.315Z,99735.38
2024-01-24T02:59:14.753Z,99693.75
2024-01-24T03:02:01.259Z,99735.06
2024-01-24T03:04:47.787Z,99717.31
2024-01-24T03:07:35.581Z,99702.53
2024-01-24T03:10:22.430Z,99730.41
2024-01-24T03:13:09.140Z,99744.09
2024-01-24T03:15:55.473Z,99727.03
2024-01-24T03:18:41.708Z,99746.00
2024-01-24T03:21:29.152Z,99744.13
2024-01-24T03:24:15.473Z,99723.28
2024-01-24T03:27:01.840Z,99740.91
2024-01-24T03:29:48.743Z,99653.97
2024-01-24T03:32:34.979Z,99711.22
2024-01-24T03:35:21.377Z,99708.78
2024-01-24T03:38:09.044Z,99719.03
2024-01-24T03:40:55.072Z,99715.47
2024-01-24T03:43:41.880Z,99740.84
2024-01-24T03:46:28.553Z,99700.06
2024-01-24T03:49:15.956Z,99701.03
2024-01-24T03:52:03.680Z,99683.81
2024-01-24T03:54:50.629Z,99732.41
2024-01-24T03:57:37.064Z,99720.88
2024-01-24T04:00:24.620Z,99738.97
2024-01-24T04:03:11.180Z,99711.31
2024-01-24T04:05:57.904Z,99715.69
2024-01-24T04:08:45.254Z,99726.16
2024-01-24T04:11:31.440Z,99736.72
2024-01-24T04:14:18.109Z,99711.81
2024-01-24T04:17:04.211Z,99742.50
2024-01-24T04:19:50.767Z,99696.88
2024-01-24T04:22:37.158Z,99726.59
2024-01-24T04:25:23.393Z,99734.63
2024-01-24T04:28:10.359Z,99738.38
2024-01-24T04:30:57.055Z,99716.00
2024-01-24T04:33:43.502Z,99731.66
2024-01-24T04:36:31.196Z,99704.00
2024-01-24T04:39:18.766Z,99714.50
2024-01-24T04:42:12.018Z,99722.25
2024-01-24T04:45:02.797Z,99730.03
2024-01-24T04:47:48.956Z,99718.00
2024-01-24T04:50:35.283Z,99707.63
2024-01-24T04:53:21.977Z,99677.31
2024-01-24T04:56:08.730Z,99718.91
2024-01-24T04:58:55.352Z,99724.13
2024-01-24T05:01:42.903Z,99702.50
2024-01-24T05:04:29.389Z,99720.66
2024-01-24T05:07:16.008Z,99710.31
2024-01-24T05:10:04.526Z,99710.31
2024-01-24T05:12:50.899Z,99718.94
2024-01-24T05:15:37.194Z,99692.09
2024-01-24T05:18:23.878Z,99697.31
2024-01-24T05:21:10.107Z,99739.75
2024-01-24T05:23:56.456Z,99712.06
2024-01-24T05:26:44.785Z,99709.47
2024-01-24T05:29:31.089Z,99709.47
2024-01-24T05:32:17.583Z,99696.44
2024-01-24T05:35:04.280Z,99686.06
2024-01-24T05:37:50.713Z,99696.47
2024-01-24T05:40:37.305Z,99686.94
2024-01-24T05:43:23.872Z,99694.72
2024-01-24T05:46:10.250Z,99697.34
2024-01-24T05:48:57.540Z,99682.59
2024-01-24T05:51:44.188Z,99648.81
2024-01-24T05:54:31.018Z,99659.22
2024-01-24T05:57:17.312Z,99654.91
2024-01-24T06:00:03.851Z,99663.53
2024-01-24T06:02:51.481Z,99640.16
2024-01-24T06:05:38.091Z,99699.03
2024-01-24T06:08:24.749Z,99679.97
2024-01-24T06:11:12.407Z,99683.41
2024-01-24T06:13:58.793Z,99694.69
2024-01-24T06:16:45.388Z,99705.94
2024-01-24T06:19:31.900Z,99692.06
2024-01-24T06:22:18.476Z,99663.50
2024-01-24T06:25:08.521Z,99692.91
2024-01-24T06:27:55.198Z,99683.38
2024-01-24T06:30:42.557Z,99694.63
2024-01-24T06:33:28.940Z,99649.63
2024-01-24T06:36:15.932Z,99686.00
2024-01-24T06:39:03.670Z,99684.22
2024-01-24T06:41:49.870Z,99714.53
2024-01-24T06:44:36.633Z,99651.38
2024-01-24T06:47:22.925Z,99693.78
2024-01-24T06:50:10.119Z,99696.41
2024-01-24T06:52:56.796Z,99671.31
2024-01-24T06:55:45.304Z,99695.53
2024-01-24T06:58:31.833Z,99688.63
2024-01-24T07:01:18.376Z,99681.66
2024-01-24T07:04:05.003Z,99686.84
2024-01-24T07:06:51.775Z,99675.63
2024-01-24T07:09:38.458Z,99609.00
2024-01-24T07:12:25.009Z,99630.59
2024-01-24T07:15:15.941Z,99643.59
2024-01-24T07:18:02.778Z,99690.34
2024-01-24T07:20:49.276Z,99682.53
2024-01-24T07:23:35.823Z,99698.13
2024-01-24T07:26:22.353Z,99686.00
2024-01-24T07:29:09.024Z,99631.44
2024-01-24T07:31:55.970Z,99672.09
2024-01-24T07:34:42.736Z,99679.06
2024-01-24T07:37:29.387Z,99671.31
2024-01-24T07:40:16.449Z,99654.81
2024-01-24T07:43:03.258Z,99674.75
2024-01-24T07:45:50.189Z,99673.03
2024-01-24T07:48:37.621Z,99643.56
2024-01-24T07:51:24.178Z,99651.38
2024-01-24T07:54:10.805Z,99707.63
2024-01-24T07:56:57.296Z,99703.28
2024-01-24T07:59:43.648Z,99690.28
2024-01-24T08:02:30.863Z,99724.06
2024-01-24T08:05:17.454Z,99716.28
2024-01-24T08:08:05.076Z,99730.16
2024-01-24T08:10:51.650Z,99699.81
2024-01-24T08:13:38.389Z,99709.34
2024-01-24T08:16:24.865Z,99678.16
2024-01-24T08:19:11.441Z,99700.66
2024-01-24T08:21:58.770Z,99686.81
2024-01-24T08:24:45.554Z,99705.03
2024-01-24T08:27:31.997Z,99737.84
2024-01-24T08:30:19.708Z,99730.94
2024-01-24T08:33:06.200Z,99697.16
2024-01-24T08:35:52.676Z,99673.81
2024-01-24T08:38:39.264Z,99678.03
2024-01-24T08:41:25.726Z,99683.28
2024-01-24T08:44:12.165Z,99693.56
2024-01-24T08:46:58.674Z,99691.88
2024-01-24T08:49:45.248Z,99682.31
2024-01-24T08:52:33.109Z,99714.31
2024-01-24T08:55:20.156Z,99672.88
2024-01-24T08:58:06.669Z,99725.63
2024-01-24T09:00:53.392Z,99717.81
2024-01-24T09:03:40.522Z,99714.34
2024-01-24T09:06:27.344Z,99721.28
2024-01-24T09:18:48.984Z,99514.63
2024-01-24T09:21:35.380Z,99724.72
2024-01-24T09:27:23.132Z,99732.59
2024-01-24T09:30:11.158Z,99742.97
2024-01-24T09:32:57.886Z,99709.13
2024-01-24T09:35:46.029Z,99722.06
2024-01-24T09:38:33.653Z,99662.38
2024-01-24T09:41:22.718Z,99732.41
2024-01-24T09:44:09.974Z,99692.56
2024-01-24T09:46:56.921Z,99672.78
2024-01-24T09:49:44.895Z,99716.00
2024-01-24T09:52:35.991Z,99737.72
2024-01-24T09:55:23.519Z,99611.41
2024-01-24T09:58:11.937Z,99698.75
2024-01-24T10:01:03.758Z,99720.44
2024-01-24T10:03:51.683Z,99717.00
2024-01-24T10:06:40.857Z,99757.69
2024-01-24T10:09:27.216Z,99774.19
2024-01-24T10:12:13.582Z,99756.75
2024-01-24T10:15:02.130Z,99728.94
2024-01-24T10:17:49.436Z,99742.91
2024-01-24T10:20:36.587Z,99772.41
2024-01-24T10:23:23.417Z,99711.00
2024-01-24T10:26:11.064Z,99685.06
2024-01-24T10:28:58.268Z,99702.31
2024-01-24T10:31:44.845Z,99753.34
2024-01-24T10:34:31.653Z,99749.06
2024-01-24T10:37:19.869Z,99766.41
2024-01-24T10:40:13.141Z,99790.81
2024-01-24T10:43:06.646Z,99770.06
2024-01-24T10:45:54.129Z,99764.88
2024-01-24T10:48:42.204Z,99767.44
2024-01-24T10:51:29.124Z,99815.94
2024-01-24T10:54:17.109Z,99778.72
2024-01-24T10:57:06.733Z,99789.13
2024-01-24T10:59:54.617Z,99801.25
2024-01-24T11:02:43.966Z,99810.78
2024-01-24T11:05:46.834Z,99797.81
2024-01-24T11:08:51.174Z,99834.19
2024-01-24T11:11:42.016Z,99821.16
2024-01-24T11:14:34.311Z,99828.97
2024-01-24T11:17:21.349Z,99814.19
2024-01-24T11:20:08.944Z,99793.38
2024-01-24T11:22:55.453Z,99817.56
2024-01-24T11:25:41.760Z,99802.03
2024-01-24T11:28:28.045Z,99836.72
2024-01-24T11:31:15.380Z,99789.09
2024-01-24T11:34:14.555Z,99779.53
2024-01-24T11:37:06.528Z,99810.75
2024-01-24T11:39:53.334Z,99758.81
2024-01-24T11:42:44.256Z,99793.47
2024-01-24T11:45:31.759Z,99770.06
2024-01-24T11:48:18.896Z,99783.94
2024-01-24T11:51:09.197Z,99762.25
2024-01-24T11:54:01.442Z,99797.81
2024-01-24T11:56:49.370Z,99815.13
2024-01-24T11:59:36.080Z,99766.59
2024-01-24T12:02:23.183Z,99774.38
2024-01-24T12:05:09.924Z,99785.66
2024-01-24T12:07:56.161Z,99784.75
2024-01-24T12:10:42.673Z,99801.22
2024-01-24T12:13:30.823Z,99764.81
2024-01-24T12:16:17.749Z,99827.16
2024-01-24T12:19:04.694Z,99835.81
2024-01-24T12:21:53.079Z,99819.31
2024-01-24T12:24:41.243Z,99828.94
2024-01-24T12:27:28.119Z,99777.84
2024-01-24T12:30:15.996Z,99786.53
2024-01-24T12:33:06.380Z,99826.34
2024-01-24T12:35:53.311Z,99751.84
2024-01-24T12:38:40.445Z,99778.69
2024-01-24T12:41:26.910Z,99810.75
2024-01-24T12:44:13.782Z,99796.03
2024-01-24T12:47:00.715Z,99784.72
2024-01-24T12:49:47.471Z,99785.56
2024-01-24T12:52:34.189Z,99769.16
2024-01-24T12:55:20.772Z,99808.13
2024-01-24T12:58:08.329Z,99780.44
2024-01-24T13:00:55.507Z,99832.44
2024-01-24T13:03:44.304Z,99802.97
2024-01-24T13:06:31.523Z,99825.50
2024-01-24T13:09:18.714Z,99768.34
2024-01-24T13:12:06.175Z,99834.19
2024-01-24T13:14:52.590Z,99803.00
2024-01-24T13:17:39.063Z,99792.56
2024-01-24T13:20:25.364Z,99822.03
2024-01-24T13:23:11.781Z,99815.94
2024-01-24T13:25:58.857Z,99830.66
2024-01-24T13:28:45.240Z,99825.44
2024-01-24T13:31:31.830Z,99782.94
2024-01-24T13:34:18.808Z,99813.31
2024-01-24T13:37:05.748Z,99802.88
2024-01-24T13:39:52.466Z,99821.94
2024-01-24T13:42:38.764Z,99800.25
2024-01-24T13:45:25.409Z,99839.25
2024-01-24T13:48:12.041Z,99826.28
2024-01-24T13:50:59.890Z,99772.53
2024-01-24T13:53:46.876Z,99826.28
2024-01-24T13:56:33.516Z,99794.22
2024-01-24T13:59:20.078Z,99830.63
2024-01-24T14:02:06.593Z,99834.94
2024-01-24T14:04:53.139Z,99844.44
2024-01-24T14:07:43.581Z,99806.22
2024-01-24T14:10:30.384Z,99826.13
2024-01-24T14:13:24.593Z,99870.38
2024-01-24T14:16:10.896Z,99809.56
2024-01-24T14:18:57.409Z,99839.00
2024-01-24T14:21:43.642Z,99851.97
2024-01-24T14:24:29.905Z,99892.66
2024-01-24T14:27:22.103Z,99839.72
2024-01-24T14:30:08.635Z,99890.84
2024-01-24T14:32:54.951Z,99896.91
2024-01-24T14:35:41.411Z,99890.75
2024-01-24T14:38:27.801Z,99931.41
2024-01-24T14:41:17.013Z,99919.25
2024-01-24T14:44:03.522Z,99895.81
2024-01-24T14:46:49.758Z,99909.69
2024-01-24T14:49:37.156Z,99889.75
2024-01-24T14:52:23.314Z,99852.38
2024-01-24T14:55:09.974Z,99937.41
2024-01-24T14:57:56.803Z,99940.06
2024-01-24T15:00:43.182Z,99925.22
2024-01-24T15:03:30.019Z,99942.63
2024-01-24T15:06:16.687Z,99926.94
2024-01-24T15:09:03.117Z,99934.00
2024-01-24T15:11:51.371Z,99936.56
2024-01-24T15:14:37.678Z,99975.69
2024-01-24T15:17:24.091Z,99973.94
2024-01-24T15:20:10.719Z,99976.53
2024-01-24T15:22:57.573Z,99964.22
2024-01-24T15:25:43.814Z,99997.97
2024-01-24T15:28:30.708Z,99995.34
2024-01-24T15:31:19.001Z,99958.69
2024-01-24T15:34:05.505Z,100016.00
2024-01-24T15:36:52.038Z,99988.03
2024-01-24T15:39:39.565Z,99990.69
2024-01-24T15:42:31.789Z,100007.97
2024-01-24T15:45:20.388Z,99981.09
2024-01-24T15:48:07.289Z,100032.28
2024-01-24T15:50:53.988Z,99991.38
2024-01-24T15:53:40.444Z,100032.25
2024-01-24T15:56:27.483Z,100018.19
2024-01-24T15:59:16.691Z,100032.00
2024-01-24T16:02:03.358Z,100028.34
2024-01-24T16:04:50.309Z,100023.97
2024-01-24T16:07:37.320Z,100019.53
2024-01-24T16:10:23.565Z,100027.31
2024-01-24T16:13:10.257Z,100006.44
2024-01-24T16:15:56.971Z,100034.38
2024-01-24T16:18:44.398Z,99997.66
2024-01-24T16:21:30.630Z,100062.84
2024-01-24T16:24:17.879Z,100067.97
2024-01-24T16:27:04.942Z,100051.34
2024-01-24T16:29:51.481Z,100045.25
2024-01-24T16:32:37.855Z,100054.59
2024-01-24T16:35:24.601Z,100053.41
2024-01-24T16:38:11.212Z,100036.00
2024-01-24T16:40:57.627Z,100062.84
2024-01-24T16:43:44.391Z,100062.69
2024-01-24T16:46:30.686Z,100109.66
2024-01-24T16:49:17.319Z,100109.75
2024-01-24T16:52:03.978Z,100123.97
2024-01-24T16:54:51.553Z,100105.88
2024-01-24T16:57:38.059Z,100113.69
2024-01-24T17:00:24.515Z,100117.97
2024-01-24T17:03:11.003Z,100103.84
2024-01-24T17:05:57.601Z,100144.69
2024-01-24T17:08:44.135Z,100131.44
2024-01-24T17:11:30.390Z,100131.19
2024-01-24T17:14:17.413Z,100068.91
2024-01-24T17:17:04.715Z,100103.59
2024-01-24T17:19:51.471Z,100120.97
2024-01-24T17:22:38.085Z,100152.06
2024-01-24T17:25:24.902Z,100114.53
2024-01-24T17:28:11.409Z,100134.16
2024-01-24T17:30:58.255Z,100164.75
2024-01-24T17:33:44.644Z,100150.94
2024-01-24T17:36:31.313Z,100137.28
2024-01-24T17:39:17.961Z,100131.78
2024-01-24T17:42:04.766Z,100087.22
2024-01-24T17:44:51.234Z,100084.34
2024-01-24T17:47:38.877Z,100105.44
2024-01-24T17:50:25.618Z,100174.09
2024-01-24T17:53:13.677Z,100131.44
2024-01-24T17:56:00.073Z,100152.97
2024-01-24T17:58:46.246Z,100136.81
2024-01-24T18:01:32.831Z,100154.13
2024-01-24T18:04:19.697Z,100135.03
2024-01-24T18:07:06.366Z,100100.16
2024-01-24T18:09:56.768Z,100158.97
2024-01-24T18:12:43.440Z,100163.41
2024-01-24T18:15:30.089Z,100159.84
2024-01-24T18:18:16.352Z,100178.16
2024-01-24T18:21:02.608Z,100197.09
2024-01-24T18:23:49.455Z,100217.13
2024-01-24T18:26:37.627Z,100204.06
2024-01-24T18:29:24.103Z,100207.53
2024-01-24T18:32:11.122Z,100171.34
2024-01-24T18:34:57.781Z,100203.97
2024-01-24T18:37:44.387Z,100209.91
2024-01-24T18:40:30.768Z,100226.78
2024-01-24T18:43:17.079Z,100206.81
2024-01-24T18:46:03.558Z,100198.41
2024-01-24T18:48:50.439Z,100172.59
2024-01-24T18:51:38.323Z,100215.41
2024-01-24T18:54:25.245Z,100199.28
2024-01-24T18:57:12.068Z,100178.44
2024-01-24T18:59:59.757Z,100175.94
2024-01-24T19:02:47.405Z,100200.28
2024-01-24T19:05:38.127Z,100224.25
2024-01-24T19:08:25.812Z,100218.81
2024-01-24T19:11:12.212Z,100217.28
2024-01-24T19:13:58.875Z,100183.44
2024-01-24T19:16:45.438Z,100197.47
2024-01-24T19:19:31.975Z,100219.31
2024-01-24T19:22:18.369Z,100227.47
2024-01-24T19:25:05.716Z,100194.13
2024-01-24T19:27:52.285Z,100175.97
2024-01-24T19:30:38.939Z,100201.03
2024-01-24T19:33:25.337Z,100217.41
2024-01-24T19:36:12.192Z,100257.94
2024-01-24T19:38:59.122Z,100224.63
2024-01-24T19:41:45.537Z,100251.09
2024-01-24T19:44:32.130Z,100240.09
2024-01-24T19:47:18.607Z,100199.97
2024-01-24T19:50:08.784Z,100219.25
2024-01-24T19:52:56.560Z,100197.47
2024-01-24T19:55:43.171Z,100200.22
2024-01-24T19:58:30.004Z,100145.22
2024-01-24T20:01:16.699Z,100211.75
2024-01-24T20:04:03.458Z,100203.91
2024-01-24T20:06:50.915Z,100164.84
2024-01-24T20:09:37.612Z,100155.25
2024-01-24T20:12:24.020Z,100174.22
2024-01-24T20:15:10.938Z,100198.69
2024-01-24T20:17:57.361Z,100188.09
2024-01-24T20:20:44.367Z,100199.69
2024-01-24T20:23:32.498Z,100217.28
2024-01-24T20:26:19.460Z,100185.88
2024-01-24T20:29:07.285Z,100175.84
2024-01-24T20:31:53.841Z,100209.63
2024-01-24T20:34:40.315Z,100222.63
2024-01-24T20:37:26.584Z,100148.53
2024-01-24T20:40:13.160Z,100169.50
2024-01-24T20:42:59.417Z,100183.34
2024-01-24T20:45:45.827Z,100195.41
2024-01-24T20:48:32.505Z,100213.47
2024-01-24T20:51:19.087Z,100235.53
2024-01-24T20:54:05.654Z,100239.81
2024-01-24T20:56:52.187Z,100219.53
2024-01-24T20:59:38.593Z,100208.25
2024-01-24T21:02:25.417Z,100175.09
2024-01-24T21:05:14.519Z,100231.16
2024-01-24T21:08:01.093Z,100107.63
2024-01-24T21:10:52.555Z,100227.25
2024-01-24T21:13:46.176Z,100206.41
2024-01-24T21:16:32.645Z,100214.03
2024-01-24T21:19:24.679Z,100175.63
2024-01-24T21:22:11.750Z,100210.47
2024-01-24T21:24:58.752Z,100205.22
2024-01-24T21:27:45.235Z,100233.72
2024-01-24T21:30:31.639Z,100188.06
2024-01-24T21:33:19.076Z,100177.06
2024-01-24T21:36:07.092Z,100202.16
2024-01-24T21:38:53.710Z,100169.94
2024-01-24T21:41:40.224Z,100183.13
2024-01-24T21:44:26.757Z,100177.91
2024-01-24T21:47:13.126Z,100193.88
2024-01-24T21:49:59.872Z,100186.75
2024-01-24T21:52:46.894Z,100184.56
2024-01-24T21:55:33.206Z,100205.66
2024-01-24T21:58:20.180Z,100193.59
2024-01-24T22:01:07.572Z,100214.94
2024-01-24T22:03:53.894Z,100192.56
2024-01-24T22:06:40.331Z,100188.94
2024-01-24T22:09:26.782Z,100217.06
2024-01-24T22:12:13.863Z,100191.59
2024-01-24T22:15:00.522Z,100225.66
2024-01-24T22:17:46.964Z,100223.28
2024-01-24T22:20:33.272Z,100204.66
2024-01-24T22:23:19.766Z,100230.78
2024-01-24T22:26:06.903Z,100177.13
2024-01-24T22:28:53.207Z,100211.88
2024-01-24T22:31:39.770Z,100211.28
2024-01-24T22:34:27.726Z,100232.97
2024-01-24T22:37:18.350Z,100218.88
2024-01-24T22:40:06.050Z,100246.13
2024-01-24T22:42:52.745Z,100226.56
2024-01-24T22:45:40.604Z,100214.47
2024-01-24T22:48:27.091Z,100200.47
2024-01-24T22:51:14.696Z,100218.09
2024-01-24T22:54:01.723Z,100184.19
2024-01-24T22:56:47.886Z,100217.28
2024-01-24T22:59:34.489Z,100222.63
2024-01-24T23:02:21.249Z,100196.72
2024-01-24T23:05:08.208Z,100184.41
2024-01-24T23:07:54.707Z,100194.19
2024-01-24T23:10:41.078Z,100193.31
2024-01-24T23:13:27.534Z,100193.09
2024-01-24T23:16:14.103Z,100179.34
2024-01-24T23:19:00.587Z,100171.34
2024-01-24T23:21:47.070Z,100183.47
2024-01-24T23:24:33.329Z,100186.84
2024-01-24T23:27:19.769Z,100200.44
2024-01-24T23:30:06.924Z,100237.06
2024-01-24T23:32:53.685Z,100190.50
2024-01-24T23:35:40.214Z,100227.06
2024-01-24T23:38:26.548Z,100217.47
2024-01-24T23:41:13.170Z,100210.50
2024-01-24T23:43:59.633Z,100215.13
2024-01-24T23:46:46.026Z,100208.16
2024-01-24T23:49:32.912Z,100190.91
2024-01-24T23:52:19.600Z,100212.59
2024-01-24T23:55:06.649Z,100164.81
2024-01-24T23:57:53.721Z,100219.91
